createdAt,value
2023-01-11T00:00:56.946Z,12.35
2023-01-11T00:03:24.531Z,11.30
2023-01-11T00:05:56.445Z,12.00
2023-01-11T00:08:25.069Z,9.40
2023-01-11T00:10:53.080Z,16.98
2023-01-11T00:13:20.800Z,26.13
2023-01-11T00:15:48.471Z,12.25
2023-01-11T00:18:16.076Z,13.63
2023-01-11T00:20:43.675Z,21.27
2023-01-11T00:23:14.496Z,11.63
2023-01-11T00:25:42.071Z,7.63
2023-01-11T00:28:09.795Z,17.48
2023-01-11T00:30:37.436Z,15.77
2023-01-11T00:33:05.042Z,16.20
2023-01-11T00:35:32.826Z,19.30
2023-01-11T00:38:00.445Z,11.18
2023-01-11T00:40:28.102Z,15.65
2023-01-11T00:43:14.174Z,18.98
2023-01-11T00:46:00.689Z,10.60
2023-01-11T00:48:28.319Z,10.73
2023-01-11T00:50:57.658Z,12.18
2023-01-11T00:53:25.256Z,21.00
2023-01-11T00:55:52.834Z,15.68
2023-01-11T00:58:20.495Z,10.68
2023-01-11T01:00:48.101Z,18.15
2023-01-11T01:03:15.956Z,22.05
2023-01-11T01:05:43.660Z,9.75
2023-01-11T01:08:11.255Z,15.55
2023-01-11T01:10:38.825Z,19.85
2023-01-11T01:13:24.623Z,13.70
2023-01-11T01:15:57.779Z,11.63
2023-01-11T01:18:25.409Z,12.10
2023-01-11T01:20:52.999Z,12.27
2023-01-11T01:23:20.737Z,11.63
2023-01-11T01:25:48.323Z,21.75
2023-01-11T01:28:16.093Z,14.75
2023-01-11T01:30:43.727Z,13.98
2023-01-11T01:33:11.330Z,19.48
2023-01-11T01:35:38.886Z,14.23
2023-01-11T01:38:06.445Z,20.92
2023-01-11T01:40:34.063Z,17.50
2023-01-11T01:43:01.624Z,19.65
2023-01-11T01:45:29.236Z,13.98
2023-01-11T01:48:01.647Z,17.63
2023-01-11T01:51:07.414Z,18.67
2023-01-11T01:53:48.454Z,12.90
2023-01-11T01:56:33.429Z,18.15
2023-01-11T01:59:09.001Z,15.60
2023-01-11T02:01:50.199Z,25.60
2023-01-11T02:04:25.598Z,19.42
2023-01-11T02:07:08.750Z,20.55
2023-01-11T02:09:52.256Z,12.45
2023-01-11T02:12:20.285Z,16.60
2023-01-11T02:14:49.039Z,16.85
2023-01-11T02:17:19.275Z,16.25
2023-01-11T02:20:01.774Z,12.35
2023-01-11T02:23:19.518Z,15.55
2023-01-11T02:25:58.762Z,17.67
2023-01-11T02:28:40.583Z,12.63
2023-01-11T02:31:26.971Z,19.85
2023-01-11T02:34:09.547Z,19.77
2023-01-11T02:37:10.182Z,16.13
2023-01-11T02:40:06.884Z,18.85
2023-01-11T02:43:14.996Z,19.42
2023-01-11T02:46:21.287Z,21.05
2023-01-11T02:49:12.838Z,20.73
2023-01-11T02:51:46.948Z,23.27
2023-01-11T02:54:17.353Z,16.42
2023-01-11T02:56:47.475Z,15.27
2023-01-11T02:59:19.857Z,23.65
2023-01-11T03:01:53.307Z,14.40
2023-01-11T03:04:32.401Z,18.23
2023-01-11T03:07:06.646Z,19.92
2023-01-11T03:09:51.477Z,21.88
2023-01-11T03:12:47.611Z,17.25
2023-01-11T03:15:34.149Z,23.02
2023-01-11T03:18:33.370Z,18.33
2023-01-11T03:21:28.654Z,17.55
2023-01-11T03:24:13.643Z,21.17
2023-01-11T03:27:02.999Z,18.42
2023-01-11T03:29:46.658Z,18.67
2023-01-11T03:32:36.174Z,24.42
2023-01-11T03:35:22.432Z,26.50
2023-01-11T03:38:01.358Z,25.83
2023-01-11T03:40:40.084Z,16.40
2023-01-11T03:43:10.952Z,26.30
2023-01-11T03:45:44.624Z,16.63
2023-01-11T03:48:24.177Z,24.45
2023-01-11T03:50:54.196Z,22.35
2023-01-11T03:53:23.837Z,16.40
2023-01-11T03:55:56.217Z,20.48
2023-01-11T03:58:26.347Z,21.98
2023-01-11T04:00:56.331Z,20.25
2023-01-11T04:03:26.896Z,20.75
2023-01-11T04:08:26.049Z,21.98
2023-01-11T04:10:53.999Z,24.27
2023-01-11T04:13:21.584Z,24.33
2023-01-11T04:15:49.188Z,24.92
2023-01-11T04:18:16.733Z,20.70
2023-01-11T04:20:47.102Z,15.40
2023-01-11T04:23:15.285Z,17.98
2023-01-11T04:25:42.865Z,18.90
2023-01-11T04:28:10.466Z,16.10
2023-01-11T04:30:39.410Z,18.15
2023-01-11T04:33:08.021Z,24.15
2023-01-11T04:35:35.718Z,24.85
2023-01-11T04:38:03.366Z,28.10
2023-01-11T04:40:37.162Z,24.58
2023-01-11T04:43:11.913Z,22.63
2023-01-11T04:45:46.827Z,20.10
2023-01-11T04:48:14.724Z,23.67
2023-01-11T04:50:49.092Z,28.23
2023-01-11T04:53:17.227Z,22.50
2023-01-11T04:55:46.629Z,25.73
2023-01-11T04:58:22.842Z,28.48
2023-01-11T05:00:50.485Z,21.33
2023-01-11T05:03:18.139Z,22.67
2023-01-11T05:05:55.653Z,37.40
2023-01-11T05:08:24.864Z,24.15
2023-01-11T05:11:00.956Z,29.65
2023-01-11T05:13:41.746Z,29.00
2023-01-11T05:16:12.436Z,26.25
2023-01-11T05:21:12.896Z,29.55
2023-01-11T05:23:47.510Z,21.02
2023-01-11T05:26:24.028Z,28.20
2023-01-11T05:28:52.618Z,23.38
2023-01-11T05:31:20.401Z,29.98
2023-01-11T05:33:50.702Z,21.85
2023-01-11T05:36:24.848Z,23.60
2023-01-11T05:38:54.310Z,27.27
2023-01-11T05:41:24.966Z,25.38
2023-01-11T05:46:41.327Z,18.70
2023-01-11T05:49:11.832Z,20.17
2023-01-11T05:51:40.142Z,23.52
2023-01-11T05:54:10.435Z,25.00
2023-01-11T05:56:40.159Z,28.42
2023-01-11T05:59:10.370Z,25.67
2023-01-11T06:01:39.297Z,24.35
2023-01-11T06:04:08.627Z,21.38
2023-01-11T06:06:36.344Z,25.38
2023-01-11T06:09:04.214Z,24.05
2023-01-11T06:11:36.777Z,21.33
2023-01-11T06:14:04.600Z,23.92
2023-01-11T06:16:32.402Z,27.40
2023-01-11T06:19:05.762Z,25.65
2023-01-11T06:21:34.218Z,28.35
2023-01-11T06:24:03.817Z,32.47
2023-01-11T06:26:33.680Z,26.08
2023-01-11T06:29:11.612Z,21.80
2023-01-11T06:31:40.449Z,17.77
2023-01-11T06:34:08.982Z,23.63
2023-01-11T06:36:39.957Z,29.13
2023-01-11T06:39:07.912Z,26.83
2023-01-11T06:41:41.512Z,23.45
2023-01-11T06:44:13.191Z,24.15
2023-01-11T06:46:43.429Z,22.25
2023-01-11T06:49:11.710Z,19.95
2023-01-11T06:51:39.313Z,24.17
2023-01-11T06:54:10.201Z,24.45
2023-01-11T06:59:59.061Z,29.35
2023-01-11T07:03:03.891Z,28.80
2023-01-11T07:09:27.332Z,23.30
2023-01-11T07:14:30.958Z,25.70
2023-01-11T07:17:28.254Z,25.20
2023-01-11T07:21:30.253Z,24.00
2023-01-11T07:24:09.558Z,21.40
2023-01-11T07:30:58.621Z,22.38
2023-01-11T07:33:35.447Z,20.55
2023-01-11T07:36:06.522Z,23.27
2023-01-11T07:39:24.839Z,26.67
2023-01-11T07:42:18.513Z,25.70
2023-01-11T07:44:46.608Z,24.90
2023-01-11T07:47:43.770Z,19.10
2023-01-11T07:50:18.264Z,24.35
2023-01-11T07:52:53.908Z,18.17
2023-01-11T07:55:25.136Z,23.17
2023-01-11T07:58:22.468Z,21.83
2023-01-11T08:00:53.663Z,24.45
2023-01-11T08:03:27.499Z,19.48
2023-01-11T08:06:06.606Z,20.08
2023-01-11T08:08:38.878Z,15.47
2023-01-11T08:11:39.732Z,20.80
2023-01-11T08:14:31.855Z,22.30
2023-01-11T08:17:15.303Z,22.42
2023-01-11T08:20:09.205Z,17.40
2023-01-11T08:22:52.241Z,17.02
2023-01-11T08:25:31.895Z,25.83
2023-01-11T08:28:04.733Z,15.75
2023-01-11T08:30:39.129Z,15.75
2023-01-11T08:33:07.321Z,17.42
2023-01-11T08:35:57.611Z,17.27
2023-01-11T08:38:48.609Z,20.85
2023-01-11T08:41:28.250Z,21.00
2023-01-11T08:44:33.826Z,11.97
2023-01-11T08:47:25.253Z,19.70
2023-01-11T08:50:02.557Z,19.17
2023-01-11T08:52:37.045Z,14.20
2023-01-11T08:55:10.012Z,20.30
2023-01-11T09:02:03.024Z,13.88
2023-01-11T09:09:14.978Z,17.17
2023-01-11T09:12:05.744Z,22.90
2023-01-11T09:15:36.834Z,18.10
2023-01-11T09:18:27.360Z,22.00
2023-01-11T09:20:59.505Z,19.85
2023-01-11T09:23:35.673Z,22.80
2023-01-11T09:26:06.917Z,21.70
2023-01-11T09:28:50.800Z,28.05
2023-01-11T09:31:22.128Z,29.50
2023-01-11T09:34:08.243Z,14.35
2023-01-11T09:36:40.232Z,24.08
2023-01-11T09:39:18.795Z,22.48
2023-01-11T09:42:34.194Z,34.15
2023-01-11T09:45:46.955Z,25.98
2023-01-11T09:48:23.367Z,22.80
2023-01-11T09:50:56.268Z,25.35
2023-01-11T09:53:44.121Z,18.30
2023-01-11T09:56:33.098Z,18.13
2023-01-11T10:03:29.874Z,18.83
2023-01-11T10:06:45.997Z,23.95
2023-01-11T10:18:30.652Z,21.27
2023-01-11T10:19:40.688Z,21.60
2023-01-11T10:22:43.115Z,15.88
2023-01-11T10:25:31.762Z,17.38
2023-01-11T10:28:06.918Z,32.38
2023-01-11T10:30:57.713Z,18.17
2023-01-11T10:34:09.409Z,16.27
2023-01-11T10:37:00.892Z,24.10
2023-01-11T10:40:14.669Z,21.52
2023-01-11T10:43:05.797Z,20.38
2023-01-11T10:45:39.835Z,13.77
2023-01-11T10:48:14.511Z,19.60
2023-01-11T10:51:34.747Z,24.20
2023-01-11T10:54:14.392Z,19.30
2023-01-11T11:00:40.048Z,12.85
2023-01-11T11:03:45.613Z,17.20
2023-01-11T11:09:59.480Z,15.05
2023-01-11T11:12:32.680Z,14.40
2023-01-11T11:15:09.341Z,12.68
2023-01-11T11:18:05.984Z,19.00
2023-01-11T11:20:36.777Z,9.35
2023-01-11T11:23:04.630Z,13.60
2023-01-11T11:25:33.785Z,14.00
2023-01-11T11:28:07.174Z,12.82
2023-01-11T11:30:49.379Z,15.95
2023-01-11T11:33:39.732Z,12.15
2023-01-11T11:36:21.652Z,13.40
2023-01-11T11:39:09.915Z,15.32
2023-01-11T11:41:50.960Z,16.65
2023-01-11T11:44:28.414Z,13.27
2023-01-11T11:47:14.815Z,15.88
2023-01-11T11:49:47.872Z,12.63
2023-01-11T11:52:24.679Z,12.32
2023-01-11T11:55:02.476Z,13.05
2023-01-11T11:57:50.894Z,14.95
2023-01-11T12:00:46.896Z,15.55
2023-01-11T12:04:15.319Z,12.27
2023-01-11T12:07:06.109Z,10.70
2023-01-11T12:09:49.094Z,10.80
2023-01-11T12:12:25.945Z,9.05
2023-01-11T12:15:39.879Z,12.55
2023-01-11T12:18:39.784Z,10.70
2023-01-11T12:25:15.221Z,9.30
2023-01-11T12:28:10.122Z,16.08
2023-01-11T12:30:56.720Z,9.80
2023-01-11T12:34:19.730Z,17.37
2023-01-11T12:37:03.000Z,13.57
2023-01-11T12:40:10.312Z,12.18
2023-01-11T12:43:13.997Z,14.02
2023-01-11T12:46:06.544Z,18.42
2023-01-11T12:49:09.842Z,7.97
2023-01-11T12:52:29.320Z,12.77
2023-01-11T12:55:36.624Z,13.23
2023-01-11T12:58:41.407Z,11.70
2023-01-11T13:01:35.644Z,14.88
2023-01-11T13:04:45.160Z,13.38
2023-01-11T13:11:25.714Z,15.15
2023-01-11T13:17:49.666Z,13.60
2023-01-11T13:20:24.411Z,16.27
2023-01-11T13:23:03.712Z,15.60
2023-01-11T13:25:35.498Z,13.52
2023-01-11T13:28:59.665Z,20.63
2023-01-11T13:32:08.608Z,13.50
2023-01-11T13:35:16.167Z,17.38
2023-01-11T13:38:01.475Z,15.05
2023-01-11T13:40:46.786Z,16.30
2023-01-11T13:43:32.713Z,16.40
2023-01-11T13:46:08.522Z,14.45
2023-01-11T13:48:53.898Z,16.58
2023-01-11T13:52:01.970Z,11.52
2023-01-11T13:54:39.358Z,9.48
2023-01-11T13:57:15.038Z,7.38
2023-01-11T13:59:50.419Z,3.97
2023-01-11T14:02:39.885Z,9.13
2023-01-11T14:05:18.723Z,3.13
2023-01-11T14:07:52.619Z,7.28
2023-01-11T14:10:26.684Z,5.07
2023-01-11T14:14:00.747Z,5.68
2023-01-11T14:17:02.448Z,1.85
2023-01-11T14:19:45.421Z,2.67
2023-01-11T14:22:39.473Z,5.95
2023-01-11T14:25:33.983Z,4.75
2023-01-11T14:28:22.977Z,6.38
2023-01-11T14:31:18.374Z,5.97
2023-01-11T14:33:55.091Z,7.57
2023-01-11T14:36:31.801Z,6.70
2023-01-11T14:39:38.837Z,15.98
2023-01-11T14:42:31.120Z,5.47
2023-01-11T14:45:13.588Z,8.23
2023-01-11T14:47:48.713Z,8.75
2023-01-11T14:50:42.191Z,6.25
2023-01-11T14:53:16.328Z,12.55
2023-01-11T14:55:45.326Z,10.00
2023-01-11T14:58:28.125Z,8.82
2023-01-11T15:00:55.971Z,9.18
2023-01-11T15:03:23.888Z,14.57
2023-01-11T15:05:57.581Z,14.88
2023-01-11T15:08:28.706Z,12.23
2023-01-11T15:11:48.552Z,14.25
2023-01-11T15:14:29.075Z,13.85
2023-01-11T15:17:20.108Z,16.77
2023-01-11T15:19:50.845Z,14.07
2023-01-11T15:22:36.917Z,17.77
2023-01-11T15:25:18.101Z,17.35
2023-01-11T15:27:46.903Z,21.95
2023-01-11T15:30:30.690Z,25.00
2023-01-11T15:33:18.229Z,19.20
2023-01-11T15:35:57.540Z,21.95
2023-01-11T15:38:32.706Z,18.85
2023-01-11T15:41:23.260Z,21.30
2023-01-11T15:44:21.869Z,23.05
2023-01-11T15:47:09.691Z,20.60
2023-01-11T15:50:14.249Z,25.08
2023-01-11T15:53:09.611Z,23.50
2023-01-11T15:56:06.091Z,30.20
2023-01-11T15:59:06.908Z,30.60
2023-01-11T16:01:53.389Z,18.73
2023-01-11T16:04:31.129Z,17.30
2023-01-11T16:10:05.191Z,20.95
2023-01-11T16:12:55.060Z,21.48
2023-01-11T16:15:42.929Z,24.38
2023-01-11T16:18:32.757Z,23.77
2023-01-11T16:21:13.616Z,18.42
2023-01-11T16:23:42.713Z,18.30
2023-01-11T16:26:20.359Z,18.05
2023-01-11T16:28:54.836Z,19.45
2023-01-11T16:31:23.357Z,22.48
2023-01-11T16:33:52.544Z,18.90
2023-01-11T16:36:23.145Z,15.73
2023-01-11T16:39:23.092Z,14.00
2023-01-11T16:42:06.075Z,16.15
2023-01-11T16:45:00.348Z,13.60
2023-01-11T16:47:29.560Z,13.02
2023-01-11T16:50:24.732Z,12.50
2023-01-11T16:52:57.064Z,13.13
2023-01-11T16:55:34.076Z,6.28
2023-01-11T16:58:06.030Z,7.47
2023-01-11T17:00:38.127Z,9.85
2023-01-11T17:03:21.616Z,6.10
2023-01-11T17:06:25.181Z,10.55
2023-01-11T17:08:56.805Z,8.40
2023-01-11T17:11:30.983Z,5.00
2023-01-11T17:14:16.532Z,7.88
2023-01-11T17:16:59.304Z,10.77
2023-01-11T17:19:34.519Z,8.02
2023-01-11T17:22:26.370Z,5.75
2023-01-11T17:25:01.233Z,6.60
2023-01-11T17:27:36.155Z,16.45
2023-01-11T17:30:10.226Z,13.02
2023-01-11T17:32:50.774Z,15.32
2023-01-11T17:36:05.887Z,13.07
2023-01-11T17:38:47.027Z,11.48
2023-01-11T17:41:36.011Z,14.15
2023-01-11T17:44:25.406Z,12.27
2023-01-11T17:46:58.520Z,13.50
2023-01-11T17:49:54.965Z,15.65
2023-01-11T17:52:53.778Z,21.60
2023-01-11T17:55:28.897Z,16.17
2023-01-11T17:58:19.624Z,18.25
2023-01-11T18:01:11.185Z,16.42
2023-01-11T18:03:57.663Z,15.65
2023-01-11T18:06:28.502Z,18.17
2023-01-11T18:09:00.411Z,9.85
2023-01-11T18:11:39.102Z,6.95
2023-01-11T18:14:17.609Z,9.30
2023-01-11T18:17:09.118Z,12.23
2023-01-11T18:19:42.735Z,11.45
2023-01-11T18:22:32.654Z,14.13
2023-01-11T18:25:08.333Z,12.55
2023-01-11T18:27:47.912Z,11.50
2023-01-11T18:30:46.245Z,8.90
2023-01-11T18:33:25.351Z,13.02
2023-01-11T18:36:00.679Z,9.65
2023-01-11T18:38:34.767Z,12.63
2023-01-11T18:41:27.877Z,13.32
2023-01-11T18:44:03.831Z,8.98
2023-01-11T18:46:31.676Z,12.55
2023-01-11T18:51:34.786Z,17.00
2023-01-11T18:54:02.367Z,24.75
2023-01-11T18:56:29.955Z,20.70
2023-01-11T18:58:58.296Z,18.92
2023-01-11T19:01:26.121Z,24.25
2023-01-11T19:03:53.949Z,24.50
2023-01-11T19:06:22.926Z,17.35
2023-01-11T19:08:54.538Z,17.80
2023-01-11T19:11:25.535Z,28.85
2023-01-11T19:16:20.632Z,22.98
2023-01-11T19:18:48.364Z,25.02
2023-01-11T19:21:16.396Z,23.85
2023-01-11T19:23:44.048Z,28.13
2023-01-11T19:26:11.843Z,20.73
2023-01-11T19:28:39.449Z,25.63
2023-01-11T19:31:11.463Z,36.53
2023-01-11T19:33:40.748Z,21.45
2023-01-11T19:36:10.598Z,23.17
2023-01-11T19:38:43.930Z,22.73
2023-01-11T19:41:15.555Z,19.10
2023-01-11T19:43:47.544Z,22.45
2023-01-11T19:46:29.990Z,26.42
2023-01-11T19:48:59.568Z,25.40
2023-01-11T19:51:27.668Z,24.63
2023-01-11T19:53:58.803Z,23.80
2023-01-11T19:56:29.802Z,15.85
2023-01-11T19:58:58.092Z,15.65
2023-01-11T20:01:26.053Z,23.73
2023-01-11T20:03:53.876Z,20.33
2023-01-11T20:06:21.884Z,23.70
2023-01-11T20:08:51.553Z,22.73
2023-01-11T20:11:19.618Z,23.10
2023-01-11T20:13:53.358Z,20.83
2023-01-11T20:16:24.651Z,22.63
2023-01-11T20:18:57.184Z,17.83
2023-01-11T20:21:29.078Z,14.75
2023-01-11T20:23:58.722Z,22.25
2023-01-11T20:26:28.272Z,24.10
2023-01-11T20:28:58.575Z,18.42
2023-01-11T20:31:28.356Z,29.67
2023-01-11T20:33:56.359Z,24.45
2023-01-11T20:36:26.113Z,23.13
2023-01-11T20:39:05.089Z,22.27
2023-01-11T20:41:48.571Z,29.17
2023-01-11T20:44:20.054Z,30.05
2023-01-11T20:47:00.688Z,29.35
2023-01-11T20:49:30.476Z,29.27
2023-01-11T20:52:01.772Z,28.13
2023-01-11T20:54:32.057Z,27.92
2023-01-11T20:57:03.229Z,23.38
2023-01-11T20:59:32.469Z,15.00
2023-01-11T21:02:00.170Z,29.33
2023-01-11T21:04:27.829Z,29.70
2023-01-11T21:06:55.671Z,27.73
2023-01-11T21:09:23.371Z,25.15
2023-01-11T21:11:57.618Z,28.58
2023-01-11T21:14:25.294Z,26.27
2023-01-11T21:16:55.237Z,37.17
2023-01-11T21:19:23.167Z,29.98
2023-01-11T21:21:50.947Z,28.55
2023-01-11T21:24:18.581Z,25.38
2023-01-11T21:26:48.049Z,33.65
2023-01-11T21:29:15.973Z,37.63
2023-01-11T21:31:43.761Z,33.40
2023-01-11T21:34:14.794Z,27.27
2023-01-11T21:36:43.329Z,26.58
2023-01-11T21:39:13.972Z,29.85
2023-01-11T21:44:31.845Z,27.30
2023-01-11T21:47:01.265Z,31.33
2023-01-11T21:49:29.388Z,24.77
2023-01-11T21:52:00.943Z,13.60
2023-01-11T21:54:28.762Z,31.63
2023-01-11T21:56:56.472Z,14.75
2023-01-11T21:59:25.048Z,23.42
2023-01-11T22:01:52.863Z,27.08
2023-01-11T22:04:21.214Z,25.98
2023-01-11T22:06:55.522Z,17.80
2023-01-11T22:09:25.937Z,24.98
2023-01-11T22:11:53.762Z,26.42
2023-01-11T22:14:21.566Z,26.48
2023-01-11T22:16:49.909Z,23.00
2023-01-11T22:19:18.111Z,25.23
2023-01-11T22:21:45.862Z,24.92
2023-01-11T22:24:13.612Z,25.60
2023-01-11T22:26:41.733Z,19.30
2023-01-11T22:29:12.909Z,20.50
2023-01-11T22:31:55.090Z,21.02
2023-01-11T22:34:23.589Z,22.83
2023-01-11T22:36:51.331Z,25.23
2023-01-11T22:39:30.075Z,27.50
2023-01-11T22:41:58.054Z,21.48
2023-01-11T22:44:25.742Z,22.58
2023-01-11T22:46:53.438Z,28.15
2023-01-11T22:49:21.137Z,24.42
2023-01-11T22:51:48.744Z,28.35
2023-01-11T22:54:16.842Z,18.58
2023-01-11T22:56:44.453Z,24.92
2023-01-11T22:59:12.096Z,22.65
2023-01-11T23:01:41.283Z,24.55
2023-01-11T23:04:13.373Z,21.15
2023-01-11T23:06:42.603Z,18.50
2023-01-11T23:09:15.933Z,19.85
2023-01-11T23:12:03.338Z,21.52
2023-01-11T23:14:32.959Z,22.65
2023-01-11T23:17:08.604Z,22.57
2023-01-11T23:19:38.859Z,21.27
2023-01-11T23:22:08.290Z,22.73
2023-01-11T23:24:42.620Z,17.92
2023-01-11T23:27:19.232Z,21.17
2023-01-11T23:29:46.859Z,31.70
2023-01-11T23:32:14.491Z,19.08
2023-01-11T23:34:42.133Z,23.80
2023-01-11T23:37:09.753Z,24.25
2023-01-11T23:39:37.443Z,24.45
2023-01-11T23:42:23.827Z,23.05
2023-01-11T23:44:51.477Z,30.77
2023-01-11T23:47:21.858Z,28.45
2023-01-11T23:49:51.621Z,39.40
2023-01-11T23:52:20.931Z,33.63
2023-01-11T23:54:48.701Z,33.35
2023-01-11T23:57:17.806Z,31.27
2023-01-11T23:59:45.686Z,37.08
